sensor_id;sensor_type;location;lat;lon;timestamp;P1;durP1;ratioP1;P2;durP2;ratioP2
52104;SDS011;38103;42.776;23.112;2023-03-14T00:00:50;28.48;;;12.70;;
52104;SDS011;38103;42.776;23.112;2023-03-14T00:03:16;23.25;;;10.95;;
52104;SDS011;38103;42.776;23.112;2023-03-14T00:05:41;23.92;;;12.85;;
52104;SDS011;38103;42.776;23.112;2023-03-14T00:08:06;24.17;;;12.30;;
52104;SDS011;38103;42.776;23.112;2023-03-14T00:10:32;24.25;;;12.07;;
52104;SDS011;38103;42.776;23.112;2023-03-14T00:12:57;25.88;;;13.73;;
52104;SDS011;38103;42.776;23.112;2023-03-14T00:15:22;27.30;;;12.45;;
52104;SDS011;38103;42.776;23.112;2023-03-14T00:17:48;24.83;;;12.65;;
52104;SDS011;38103;42.776;23.112;2023-03-14T00:20:13;23.67;;;12.80;;
52104;SDS011;38103;42.776;23.112;2023-03-14T00:22:39;24.85;;;13.52;;
52104;SDS011;38103;42.776;23.112;2023-03-14T00:25:05;27.67;;;12.82;;
52104;SDS011;38103;42.776;23.112;2023-03-14T00:27:32;24.23;;;12.80;;
52104;SDS011;38103;42.776;23.112;2023-03-14T00:29:58;25.20;;;12.85;;
52104;SDS011;38103;42.776;23.112;2023-03-14T00:32:23;24.20;;;13.75;;
52104;SDS011;38103;42.776;23.112;2023-03-14T00:34:49;27.67;;;14.55;;
52104;SDS011;38103;42.776;23.112;2023-03-14T00:37:14;30.17;;;13.10;;
52104;SDS011;38103;42.776;23.112;2023-03-14T00:39:40;26.20;;;14.00;;
52104;SDS011;38103;42.776;23.112;2023-03-14T00:42:06;28.50;;;14.05;;
52104;SDS011;38103;42.776;23.112;2023-03-14T00:44:31;29.05;;;14.32;;
52104;SDS011;38103;42.776;23.112;2023-03-14T00:46:59;31.02;;;14.85;;
52104;SDS011;38103;42.776;23.112;2023-03-14T00:49:25;32.00;;;14.65;;
52104;SDS011;38103;42.776;23.112;2023-03-14T00:51:51;27.63;;;13.65;;
52104;SDS011;38103;42.776;23.112;2023-03-14T00:54:16;28.08;;;13.77;;
52104;SDS011;38103;42.776;23.112;2023-03-14T00:56:42;25.88;;;12.65;;
52104;SDS011;38103;42.776;23.112;2023-03-14T00:59:08;27.10;;;14.00;;
52104;SDS011;38103;42.776;23.112;2023-03-14T01:01:33;42.95;;;21.02;;
52104;SDS011;38103;42.776;23.112;2023-03-14T01:03:59;36.17;;;19.10;;
52104;SDS011;38103;42.776;23.112;2023-03-14T01:06:25;30.48;;;14.88;;
52104;SDS011;38103;42.776;23.112;2023-03-14T01:08:53;40.53;;;18.38;;
52104;SDS011;38103;42.776;23.112;2023-03-14T01:11:29;50.20;;;23.50;;
52104;SDS011;38103;42.776;23.112;2023-03-14T01:13:56;38.25;;;16.90;;
52104;SDS011;38103;42.776;23.112;2023-03-14T01:16:22;29.95;;;14.75;;
52104;SDS011;38103;42.776;23.112;2023-03-14T01:18:50;26.90;;;14.05;;
52104;SDS011;38103;42.776;23.112;2023-03-14T01:21:20;31.30;;;14.70;;
52104;SDS011;38103;42.776;23.112;2023-03-14T01:23:48;32.05;;;15.00;;
52104;SDS011;38103;42.776;23.112;2023-03-14T01:26:16;27.77;;;14.52;;
52104;SDS011;38103;42.776;23.112;2023-03-14T01:28:44;25.92;;;12.63;;
52104;SDS011;38103;42.776;23.112;2023-03-14T01:31:11;24.85;;;13.68;;
52104;SDS011;38103;42.776;23.112;2023-03-14T01:33:37;30.13;;;14.60;;
52104;SDS011;38103;42.776;23.112;2023-03-14T01:36:03;29.60;;;13.30;;
52104;SDS011;38103;42.776;23.112;2023-03-14T01:38:29;26.83;;;12.02;;
52104;SDS011;38103;42.776;23.112;2023-03-14T01:40:55;28.40;;;12.70;;
52104;SDS011;38103;42.776;23.112;2023-03-14T01:43:21;29.88;;;14.73;;
52104;SDS011;38103;42.776;23.112;2023-03-14T01:51:11;25.65;;;11.77;;
52104;SDS011;38103;42.776;23.112;2023-03-14T01:53:43;26.33;;;12.85;;
52104;SDS011;38103;42.776;23.112;2023-03-14T01:56:10;24.25;;;12.15;;
52104;SDS011;38103;42.776;23.112;2023-03-14T01:58:38;23.95;;;12.00;;
52104;SDS011;38103;42.776;23.112;2023-03-14T02:01:06;25.42;;;12.98;;
52104;SDS011;38103;42.776;23.112;2023-03-14T02:03:35;24.80;;;11.05;;
52104;SDS011;38103;42.776;23.112;2023-03-14T02:06:11;21.98;;;11.55;;
52104;SDS011;38103;42.776;23.112;2023-03-14T02:08:39;26.60;;;11.98;;
52104;SDS011;38103;42.776;23.112;2023-03-14T02:11:05;22.70;;;11.88;;
52104;SDS011;38103;42.776;23.112;2023-03-14T02:13:32;22.40;;;11.85;;
52104;SDS011;38103;42.776;23.112;2023-03-14T02:15:57;29.50;;;14.15;;
52104;SDS011;38103;42.776;23.112;2023-03-14T02:18:23;28.55;;;12.65;;
52104;SDS011;38103;42.776;23.112;2023-03-14T02:23:38;22.42;;;11.15;;
52104;SDS011;38103;42.776;23.112;2023-03-14T02:26:32;24.15;;;11.20;;
52104;SDS011;38103;42.776;23.112;2023-03-14T02:29:20;24.08;;;11.35;;
52104;SDS011;38103;42.776;23.112;2023-03-14T02:31:45;23.23;;;10.98;;
52104;SDS011;38103;42.776;23.112;2023-03-14T02:34:11;22.63;;;11.13;;
52104;SDS011;38103;42.776;23.112;2023-03-14T02:36:37;23.50;;;11.50;;
52104;SDS011;38103;42.776;23.112;2023-03-14T02:41:28;22.23;;;10.93;;
52104;SDS011;38103;42.776;23.112;2023-03-14T02:43:54;22.35;;;11.40;;
52104;SDS011;38103;42.776;23.112;2023-03-14T02:46:20;26.33;;;11.45;;
52104;SDS011;38103;42.776;23.112;2023-03-14T02:48:48;21.85;;;11.20;;
52104;SDS011;38103;42.776;23.112;2023-03-14T02:51:18;23.55;;;11.32;;
52104;SDS011;38103;42.776;23.112;2023-03-14T02:53:45;27.00;;;12.10;;
52104;SDS011;38103;42.776;23.112;2023-03-14T02:56:10;23.45;;;11.52;;
52104;SDS011;38103;42.776;23.112;2023-03-14T02:58:36;23.27;;;11.88;;
52104;SDS011;38103;42.776;23.112;2023-03-14T03:01:01;21.77;;;11.00;;
52104;SDS011;38103;42.776;23.112;2023-03-14T03:03:27;24.35;;;11.40;;
52104;SDS011;38103;42.776;23.112;2023-03-14T03:05:53;21.42;;;11.27;;
52104;SDS011;38103;42.776;23.112;2023-03-14T03:08:21;25.92;;;11.25;;
52104;SDS011;38103;42.776;23.112;2023-03-14T03:10:48;25.73;;;12.00;;
52104;SDS011;38103;42.776;23.112;2023-03-14T03:13:13;24.75;;;11.65;;
52104;SDS011;38103;42.776;23.112;2023-03-14T03:15:39;23.20;;;12.32;;
52104;SDS011;38103;42.776;23.112;2023-03-14T03:18:05;21.90;;;11.63;;
52104;SDS011;38103;42.776;23.112;2023-03-14T03:20:31;24.45;;;12.35;;
52104;SDS011;38103;42.776;23.112;2023-03-14T03:22:58;21.70;;;11.20;;
52104;SDS011;38103;42.776;23.112;2023-03-14T03:25:24;24.42;;;12.80;;
52104;SDS011;38103;42.776;23.112;2023-03-14T03:27:49;50.05;;;19.88;;
52104;SDS011;38103;42.776;23.112;2023-03-14T03:30:15;51.17;;;20.40;;
52104;SDS011;38103;42.776;23.112;2023-03-14T03:32:40;32.45;;;13.48;;
52104;SDS011;38103;42.776;23.112;2023-03-14T03:35:06;36.83;;;15.38;;
52104;SDS011;38103;42.776;23.112;2023-03-14T03:37:32;39.85;;;22.25;;
52104;SDS011;38103;42.776;23.112;2023-03-14T03:39:58;33.85;;;18.13;;
52104;SDS011;38103;42.776;23.112;2023-03-14T03:42:26;23.27;;;11.70;;
52104;SDS011;38103;42.776;23.112;2023-03-14T03:44:51;26.70;;;13.48;;
52104;SDS011;38103;42.776;23.112;2023-03-14T03:47:17;35.45;;;23.35;;
52104;SDS011;38103;42.776;23.112;2023-03-14T03:49:42;21.75;;;12.25;;
52104;SDS011;38103;42.776;23.112;2023-03-14T03:52:07;32.72;;;13.82;;
52104;SDS011;38103;42.776;23.112;2023-03-14T03:54:34;22.63;;;12.40;;
52104;SDS011;38103;42.776;23.112;2023-03-14T03:56:59;24.48;;;11.43;;
52104;SDS011;38103;42.776;23.112;2023-03-14T03:59:25;24.73;;;11.98;;
52104;SDS011;38103;42.776;23.112;2023-03-14T04:01:50;22.23;;;11.57;;
52104;SDS011;38103;42.776;23.112;2023-03-14T04:04:16;20.80;;;11.93;;
52104;SDS011;38103;42.776;23.112;2023-03-14T04:06:41;22.23;;;11.32;;
52104;SDS011;38103;42.776;23.112;2023-03-14T04:09:07;23.05;;;11.38;;
52104;SDS011;38103;42.776;23.112;2023-03-14T04:11:33;23.52;;;12.15;;
52104;SDS011;38103;42.776;23.112;2023-03-14T04:13:59;23.20;;;11.65;;
52104;SDS011;38103;42.776;23.112;2023-03-14T04:16:25;22.23;;;11.18;;
52104;SDS011;38103;42.776;23.112;2023-03-14T04:18:51;22.88;;;11.82;;
52104;SDS011;38103;42.776;23.112;2023-03-14T04:21:17;22.02;;;11.15;;
52104;SDS011;38103;42.776;23.112;2023-03-14T04:23:43;21.48;;;11.07;;
52104;SDS011;38103;42.776;23.112;2023-03-14T04:26:08;22.80;;;11.07;;
52104;SDS011;38103;42.776;23.112;2023-03-14T04:28:34;22.40;;;10.88;;
52104;SDS011;38103;42.776;23.112;2023-03-14T04:31:12;23.42;;;10.77;;
52104;SDS011;38103;42.776;23.112;2023-03-14T04:33:42;19.83;;;9.43;;
52104;SDS011;38103;42.776;23.112;2023-03-14T04:36:07;22.60;;;10.30;;
52104;SDS011;38103;42.776;23.112;2023-03-14T04:38:33;21.77;;;10.13;;
52104;SDS011;38103;42.776;23.112;2023-03-14T04:40:59;21.80;;;10.40;;
52104;SDS011;38103;42.776;23.112;2023-03-14T04:43:25;19.38;;;10.00;;
52104;SDS011;38103;42.776;23.112;2023-03-14T04:45:52;21.70;;;9.48;;
52104;SDS011;38103;42.776;23.112;2023-03-14T04:48:18;21.98;;;10.10;;
52104;SDS011;38103;42.776;23.112;2023-03-14T04:50:44;22.02;;;10.00;;
52104;SDS011;38103;42.776;23.112;2023-03-14T04:53:11;21.73;;;9.48;;
52104;SDS011;38103;42.776;23.112;2023-03-14T04:55:36;19.13;;;9.68;;
52104;SDS011;38103;42.776;23.112;2023-03-14T04:58:02;19.98;;;9.98;;
52104;SDS011;38103;42.776;23.112;2023-03-14T05:00:27;20.27;;;9.90;;
52104;SDS011;38103;42.776;23.112;2023-03-14T05:02:52;20.42;;;9.35;;
52104;SDS011;38103;42.776;23.112;2023-03-14T05:05:18;18.55;;;9.50;;
52104;SDS011;38103;42.776;23.112;2023-03-14T05:07:44;18.13;;;8.07;;
52104;SDS011;38103;42.776;23.112;2023-03-14T05:10:10;18.25;;;8.10;;
52104;SDS011;38103;42.776;23.112;2023-03-14T05:12:35;16.63;;;8.25;;
52104;SDS011;38103;42.776;23.112;2023-03-14T05:15:01;20.17;;;9.10;;
52104;SDS011;38103;42.776;23.112;2023-03-14T05:17:26;20.27;;;9.68;;
52104;SDS011;38103;42.776;23.112;2023-03-14T05:19:52;17.58;;;8.25;;
52104;SDS011;38103;42.776;23.112;2023-03-14T05:22:17;17.98;;;8.25;;
52104;SDS011;38103;42.776;23.112;2023-03-14T05:24:43;22.38;;;9.57;;
52104;SDS011;38103;42.776;23.112;2023-03-14T05:27:08;32.17;;;15.80;;
52104;SDS011;38103;42.776;23.112;2023-03-14T05:29:33;34.92;;;16.73;;
52104;SDS011;38103;42.776;23.112;2023-03-14T05:31:59;18.38;;;8.77;;
52104;SDS011;38103;42.776;23.112;2023-03-14T05:34:24;20.95;;;10.02;;
52104;SDS011;38103;42.776;23.112;2023-03-14T05:36:49;20.20;;;10.48;;
52104;SDS011;38103;42.776;23.112;2023-03-14T05:39:15;17.02;;;8.88;;
52104;SDS011;38103;42.776;23.112;2023-03-14T05:41:40;15.27;;;7.45;;
52104;SDS011;38103;42.776;23.112;2023-03-14T05:44:06;17.98;;;6.88;;
52104;SDS011;38103;42.776;23.112;2023-03-14T05:46:31;13.32;;;6.25;;
52104;SDS011;38103;42.776;23.112;2023-03-14T05:48:57;13.93;;;6.38;;
52104;SDS011;38103;42.776;23.112;2023-03-14T05:51:23;12.55;;;5.95;;
52104;SDS011;38103;42.776;23.112;2023-03-14T05:53:48;14.70;;;6.32;;
52104;SDS011;38103;42.776;23.112;2023-03-14T05:56:14;14.52;;;6.30;;
52104;SDS011;38103;42.776;23.112;2023-03-14T05:58:39;14.00;;;6.43;;
52104;SDS011;38103;42.776;23.112;2023-03-14T06:01:05;13.50;;;6.88;;
52104;SDS011;38103;42.776;23.112;2023-03-14T06:03:31;15.95;;;7.38;;
52104;SDS011;38103;42.776;23.112;2023-03-14T06:05:57;14.15;;;6.70;;
52104;SDS011;38103;42.776;23.112;2023-03-14T06:08:23;21.80;;;7.00;;
52104;SDS011;38103;42.776;23.112;2023-03-14T06:10:48;13.82;;;6.85;;
52104;SDS011;38103;42.776;23.112;2023-03-14T06:13:14;12.73;;;6.60;;
52104;SDS011;38103;42.776;23.112;2023-03-14T06:15:40;13.65;;;6.75;;
52104;SDS011;38103;42.776;23.112;2023-03-14T06:18:07;14.30;;;6.45;;
52104;SDS011;38103;42.776;23.112;2023-03-14T06:20:33;17.35;;;7.05;;
52104;SDS011;38103;42.776;23.112;2023-03-14T06:23:00;13.85;;;6.68;;
52104;SDS011;38103;42.776;23.112;2023-03-14T06:25:25;13.70;;;6.90;;
52104;SDS011;38103;42.776;23.112;2023-03-14T06:27:51;15.48;;;6.45;;
52104;SDS011;38103;42.776;23.112;2023-03-14T06:30:16;15.05;;;7.20;;
52104;SDS011;38103;42.776;23.112;2023-03-14T06:32:42;15.02;;;6.90;;
52104;SDS011;38103;42.776;23.112;2023-03-14T06:35:07;13.85;;;6.95;;
52104;SDS011;38103;42.776;23.112;2023-03-14T06:37:33;14.60;;;7.03;;
52104;SDS011;38103;42.776;23.112;2023-03-14T06:39:58;14.77;;;6.85;;
52104;SDS011;38103;42.776;23.112;2023-03-14T06:42:24;15.63;;;6.95;;
52104;SDS011;38103;42.776;23.112;2023-03-14T06:44:49;13.10;;;6.30;;
52104;SDS011;38103;42.776;23.112;2023-03-14T06:47:14;14.82;;;6.53;;
52104;SDS011;38103;42.776;23.112;2023-03-14T06:49:40;16.17;;;6.90;;
52104;SDS011;38103;42.776;23.112;2023-03-14T06:52:05;13.82;;;6.30;;
52104;SDS011;38103;42.776;23.112;2023-03-14T06:54:31;16.60;;;6.68;;
52104;SDS011;38103;42.776;23.112;2023-03-14T06:56:56;13.23;;;6.60;;
52104;SDS011;38103;42.776;23.112;2023-03-14T06:59:21;20.40;;;7.45;;
52104;SDS011;38103;42.776;23.112;2023-03-14T07:01:47;12.95;;;6.40;;
52104;SDS011;38103;42.776;23.112;2023-03-14T07:04:13;14.95;;;8.07;;
52104;SDS011;38103;42.776;23.112;2023-03-14T07:06:38;14.15;;;7.90;;
52104;SDS011;38103;42.776;23.112;2023-03-14T07:09:04;14.45;;;7.88;;
52104;SDS011;38103;42.776;23.112;2023-03-14T07:11:31;16.35;;;8.45;;
52104;SDS011;38103;42.776;23.112;2023-03-14T07:13:57;16.38;;;8.57;;
52104;SDS011;38103;42.776;23.112;2023-03-14T07:16:22;15.32;;;8.80;;
52104;SDS011;38103;42.776;23.112;2023-03-14T07:18:47;18.02;;;8.73;;
52104;SDS011;38103;42.776;23.112;2023-03-14T07:21:14;16.50;;;8.75;;
52104;SDS011;38103;42.776;23.112;2023-03-14T07:23:39;18.67;;;9.52;;
52104;SDS011;38103;42.776;23.112;2023-03-14T07:26:05;21.48;;;9.77;;
52104;SDS011;38103;42.776;23.112;2023-03-14T07:28:31;18.33;;;9.40;;
52104;SDS011;38103;42.776;23.112;2023-03-14T07:30:56;20.25;;;9.77;;
52104;SDS011;38103;42.776;23.112;2023-03-14T07:33:21;18.77;;;9.40;;
52104;SDS011;38103;42.776;23.112;2023-03-14T07:35:48;18.15;;;9.77;;
52104;SDS011;38103;42.776;23.112;2023-03-14T07:38:14;18.95;;;9.55;;
52104;SDS011;38103;42.776;23.112;2023-03-14T07:40:40;18.73;;;9.35;;
52104;SDS011;38103;42.776;23.112;2023-03-14T07:43:06;22.15;;;9.82;;
52104;SDS011;38103;42.776;23.112;2023-03-14T07:45:31;16.85;;;9.02;;
52104;SDS011;38103;42.776;23.112;2023-03-14T07:47:57;18.25;;;9.80;;
52104;SDS011;38103;42.776;23.112;2023-03-14T07:50:25;21.23;;;9.45;;
52104;SDS011;38103;42.776;23.112;2023-03-14T07:52:51;21.90;;;9.77;;
52104;SDS011;38103;42.776;23.112;2023-03-14T07:55:17;20.27;;;9.43;;
52104;SDS011;38103;42.776;23.112;2023-03-14T07:57:42;19.45;;;10.60;;
52104;SDS011;38103;42.776;23.112;2023-03-14T08:00:08;23.25;;;9.63;;
52104;SDS011;38103;42.776;23.112;2023-03-14T08:02:34;20.13;;;9.45;;
52104;SDS011;38103;42.776;23.112;2023-03-14T08:05:01;18.50;;;10.10;;
52104;SDS011;38103;42.776;23.112;2023-03-14T08:07:26;24.35;;;9.93;;
52104;SDS011;38103;42.776;23.112;2023-03-14T08:09:52;19.48;;;10.40;;
52104;SDS011;38103;42.776;23.112;2023-03-14T08:12:17;21.15;;;10.05;;
52104;SDS011;38103;42.776;23.112;2023-03-14T08:14:42;19.15;;;9.90;;
52104;SDS011;38103;42.776;23.112;2023-03-14T08:17:08;20.45;;;10.15;;
52104;SDS011;38103;42.776;23.112;2023-03-14T08:19:34;18.85;;;9.93;;
52104;SDS011;38103;42.776;23.112;2023-03-14T08:21:59;19.83;;;10.07;;
52104;SDS011;38103;42.776;23.112;2023-03-14T08:24:25;17.95;;;10.10;;
52104;SDS011;38103;42.776;23.112;2023-03-14T08:26:50;17.38;;;9.38;;
52104;SDS011;38103;42.776;23.112;2023-03-14T08:29:16;16.27;;;9.25;;
52104;SDS011;38103;42.776;23.112;2023-03-14T08:31:41;19.15;;;9.20;;
52104;SDS011;38103;42.776;23.112;2023-03-14T08:34:06;18.48;;;9.35;;
52104;SDS011;38103;42.776;23.112;2023-03-14T08:36:32;19.80;;;9.68;;
52104;SDS011;38103;42.776;23.112;2023-03-14T08:38:58;18.48;;;9.95;;
52104;SDS011;38103;42.776;23.112;2023-03-14T08:41:23;16.65;;;9.13;;
52104;SDS011;38103;42.776;23.112;2023-03-14T08:43:49;22.08;;;10.13;;
52104;SDS011;38103;42.776;23.112;2023-03-14T08:46:14;19.00;;;9.45;;
52104;SDS011;38103;42.776;23.112;2023-03-14T08:48:40;18.45;;;9.65;;
52104;SDS011;38103;42.776;23.112;2023-03-14T08:53:31;20.05;;;11.63;;
52104;SDS011;38103;42.776;23.112;2023-03-14T08:55:56;24.10;;;9.38;;
52104;SDS011;38103;42.776;23.112;2023-03-14T08:58:22;19.55;;;11.05;;
52104;SDS011;38103;42.776;23.112;2023-03-14T09:00:48;22.50;;;10.90;;
52104;SDS011;38103;42.776;23.112;2023-03-14T09:03:14;23.42;;;11.52;;
52104;SDS011;38103;42.776;23.112;2023-03-14T09:05:39;18.95;;;10.40;;
52104;SDS011;38103;42.776;23.112;2023-03-14T09:08:05;23.13;;;12.63;;
52104;SDS011;38103;42.776;23.112;2023-03-14T09:10:30;19.55;;;11.02;;
52104;SDS011;38103;42.776;23.112;2023-03-14T09:12:56;22.80;;;11.85;;
52104;SDS011;38103;42.776;23.112;2023-03-14T09:15:23;23.85;;;11.80;;
52104;SDS011;38103;42.776;23.112;2023-03-14T09:17:48;23.25;;;12.00;;
52104;SDS011;38103;42.776;23.112;2023-03-14T09:20:14;21.58;;;11.88;;
52104;SDS011;38103;42.776;23.112;2023-03-14T09:22:39;19.25;;;10.20;;
52104;SDS011;38103;42.776;23.112;2023-03-14T09:25:05;25.25;;;10.95;;
52104;SDS011;38103;42.776;23.112;2023-03-14T09:27:31;17.27;;;8.40;;
52104;SDS011;38103;42.776;23.112;2023-03-14T09:29:56;18.73;;;9.15;;
52104;SDS011;38103;42.776;23.112;2023-03-14T09:32:21;19.90;;;9.85;;
52104;SDS011;38103;42.776;23.112;2023-03-14T09:34:47;18.88;;;9.63;;
52104;SDS011;38103;42.776;23.112;2023-03-14T09:37:12;22.90;;;11.60;;
52104;SDS011;38103;42.776;23.112;2023-03-14T09:39:37;22.52;;;10.40;;
52104;SDS011;38103;42.776;23.112;2023-03-14T09:42:04;19.40;;;10.05;;
52104;SDS011;38103;42.776;23.112;2023-03-14T09:44:37;19.77;;;9.77;;
52104;SDS011;38103;42.776;23.112;2023-03-14T09:47:09;18.42;;;9.43;;
52104;SDS011;38103;42.776;23.112;2023-03-14T09:49:39;20.95;;;10.45;;
52104;SDS011;38103;42.776;23.112;2023-03-14T09:52:16;21.67;;;11.10;;
52104;SDS011;38103;42.776;23.112;2023-03-14T09:54:47;21.95;;;11.27;;
52104;SDS011;38103;42.776;23.112;2023-03-14T09:57:19;27.15;;;12.75;;
52104;SDS011;38103;42.776;23.112;2023-03-14T09:59:47;22.92;;;11.68;;
52104;SDS011;38103;42.776;23.112;2023-03-14T10:02:15;21.08;;;11.32;;
52104;SDS011;38103;42.776;23.112;2023-03-14T10:04:44;22.95;;;10.57;;
52104;SDS011;38103;42.776;23.112;2023-03-14T10:07:14;19.65;;;10.82;;
52104;SDS011;38103;42.776;23.112;2023-03-14T10:09:44;19.67;;;11.30;;
52104;SDS011;38103;42.776;23.112;2023-03-14T10:12:12;21.67;;;9.93;;
52104;SDS011;38103;42.776;23.112;2023-03-14T10:14:44;19.83;;;10.32;;
52104;SDS011;38103;42.776;23.112;2023-03-14T10:17:14;20.27;;;11.00;;
52104;SDS011;38103;42.776;23.112;2023-03-14T10:19:58;22.65;;;11.30;;
52104;SDS011;38103;42.776;23.112;2023-03-14T10:22:25;18.33;;;9.02;;
52104;SDS011;38103;42.776;23.112;2023-03-14T10:24:55;18.38;;;8.70;;
52104;SDS011;38103;42.776;23.112;2023-03-14T10:27:31;20.98;;;7.95;;
52104;SDS011;38103;42.776;23.112;2023-03-14T10:30:00;20.45;;;8.77;;
52104;SDS011;38103;42.776;23.112;2023-03-14T10:32:28;17.55;;;8.80;;
52104;SDS011;38103;42.776;23.112;2023-03-14T10:37:33;19.13;;;8.93;;
52104;SDS011;38103;42.776;23.112;2023-03-14T10:39:59;16.77;;;8.10;;
52104;SDS011;38103;42.776;23.112;2023-03-14T10:42:34;15.80;;;8.77;;
52104;SDS011;38103;42.776;23.112;2023-03-14T10:45:15;20.88;;;8.15;;
52104;SDS011;38103;42.776;23.112;2023-03-14T10:47:50;17.90;;;7.60;;
52104;SDS011;38103;42.776;23.112;2023-03-14T10:50:29;19.65;;;7.95;;
52104;SDS011;38103;42.776;23.112;2023-03-14T10:52:56;18.75;;;8.88;;
52104;SDS011;38103;42.776;23.112;2023-03-14T10:55:25;19.27;;;9.27;;
52104;SDS011;38103;42.776;23.112;2023-03-14T10:57:51;19.25;;;9.70;;
52104;SDS011;38103;42.776;23.112;2023-03-14T11:00:18;19.50;;;9.02;;
52104;SDS011;38103;42.776;23.112;2023-03-14T11:05:29;19.15;;;9.43;;
52104;SDS011;38103;42.776;23.112;2023-03-14T11:08:04;19.27;;;9.82;;
52104;SDS011;38103;42.776;23.112;2023-03-14T11:10:40;20.25;;;9.60;;
52104;SDS011;38103;42.776;23.112;2023-03-14T11:18:29;18.88;;;8.90;;
52104;SDS011;38103;42.776;23.112;2023-03-14T11:21:17;31.10;;;9.57;;
52104;SDS011;38103;42.776;23.112;2023-03-14T11:24:10;18.80;;;9.30;;
52104;SDS011;38103;42.776;23.112;2023-03-14T11:29:41;19.30;;;9.18;;
52104;SDS011;38103;42.776;23.112;2023-03-14T11:32:20;19.70;;;9.38;;
52104;SDS011;38103;42.776;23.112;2023-03-14T11:35:26;18.25;;;8.27;;
52104;SDS011;38103;42.776;23.112;2023-03-14T11:37:56;18.80;;;8.35;;
52104;SDS011;38103;42.776;23.112;2023-03-14T11:40:27;21.40;;;8.98;;
52104;SDS011;38103;42.776;23.112;2023-03-14T11:43:15;17.67;;;8.23;;
52104;SDS011;38103;42.776;23.112;2023-03-14T11:45:43;19.48;;;8.18;;
52104;SDS011;38103;42.776;23.112;2023-03-14T11:50:50;14.88;;;6.80;;
52104;SDS011;38103;42.776;23.112;2023-03-14T11:53:40;20.83;;;8.02;;
52104;SDS011;38103;42.776;23.112;2023-03-14T11:56:14;17.05;;;7.55;;
52104;SDS011;38103;42.776;23.112;2023-03-14T11:59:07;19.58;;;7.88;;
52104;SDS011;38103;42.776;23.112;2023-03-14T12:04:29;16.67;;;7.32;;
52104;SDS011;38103;42.776;23.112;2023-03-14T12:07:07;16.83;;;7.28;;
52104;SDS011;38103;42.776;23.112;2023-03-14T12:09:42;16.20;;;7.53;;
52104;SDS011;38103;42.776;23.112;2023-03-14T12:12:10;15.90;;;6.97;;
52104;SDS011;38103;42.776;23.112;2023-03-14T12:14:45;16.13;;;7.05;;
52104;SDS011;38103;42.776;23.112;2023-03-14T12:17:19;13.27;;;6.30;;
52104;SDS011;38103;42.776;23.112;2023-03-14T12:19:45;15.57;;;6.32;;
52104;SDS011;38103;42.776;23.112;2023-03-14T12:22:21;15.43;;;6.32;;
52104;SDS011;38103;42.776;23.112;2023-03-14T12:24:49;15.23;;;5.90;;
52104;SDS011;38103;42.776;23.112;2023-03-14T12:27:38;17.23;;;7.43;;
52104;SDS011;38103;42.776;23.112;2023-03-14T12:30:18;13.70;;;6.15;;
52104;SDS011;38103;42.776;23.112;2023-03-14T12:35:41;13.48;;;6.57;;
52104;SDS011;38103;42.776;23.112;2023-03-14T12:38:12;16.05;;;6.28;;
52104;SDS011;38103;42.776;23.112;2023-03-14T12:41:17;15.13;;;7.30;;
52104;SDS011;38103;42.776;23.112;2023-03-14T12:43:50;15.88;;;7.28;;
52104;SDS011;38103;42.776;23.112;2023-03-14T12:51:28;22.20;;;7.65;;
52104;SDS011;38103;42.776;23.112;2023-03-14T12:54:07;16.75;;;8.20;;
52104;SDS011;38103;42.776;23.112;2023-03-14T13:01:45;19.33;;;9.55;;
52104;SDS011;38103;42.776;23.112;2023-03-14T13:04:35;17.98;;;9.15;;
52104;SDS011;38103;42.776;23.112;2023-03-14T13:07:12;17.73;;;8.95;;
52104;SDS011;38103;42.776;23.112;2023-03-14T13:10:16;16.95;;;8.07;;
52104;SDS011;38103;42.776;23.112;2023-03-14T13:15:20;15.93;;;7.82;;
52104;SDS011;38103;42.776;23.112;2023-03-14T13:17:49;14.07;;;6.95;;
52104;SDS011;38103;42.776;23.112;2023-03-14T13:20:18;12.07;;;5.85;;
52104;SDS011;38103;42.776;23.112;2023-03-14T13:22:49;14.90;;;7.35;;
52104;SDS011;38103;42.776;23.112;2023-03-14T13:25:15;16.77;;;5.88;;
52104;SDS011;38103;42.776;23.112;2023-03-14T13:27:46;14.80;;;5.60;;
52104;SDS011;38103;42.776;23.112;2023-03-14T13:30:14;15.98;;;5.78;;
52104;SDS011;38103;42.776;23.112;2023-03-14T13:32:46;17.58;;;5.65;;
52104;SDS011;38103;42.776;23.112;2023-03-14T13:35:21;14.77;;;5.28;;
52104;SDS011;38103;42.776;23.112;2023-03-14T13:37:47;13.93;;;5.43;;
52104;SDS011;38103;42.776;23.112;2023-03-14T13:40:24;12.35;;;5.20;;
52104;SDS011;38103;42.776;23.112;2023-03-14T13:43:11;11.57;;;4.75;;
52104;SDS011;38103;42.776;23.112;2023-03-14T13:45:44;13.95;;;5.25;;
52104;SDS011;38103;42.776;23.112;2023-03-14T13:48:13;12.05;;;4.57;;
52104;SDS011;38103;42.776;23.112;2023-03-14T13:50:43;17.67;;;4.57;;
52104;SDS011;38103;42.776;23.112;2023-03-14T13:53:11;11.85;;;4.38;;
52104;SDS011;38103;42.776;23.112;2023-03-14T13:55:37;11.57;;;4.35;;
52104;SDS011;38103;42.776;23.112;2023-03-14T13:58:03;12.45;;;4.30;;
52104;SDS011;38103;42.776;23.112;2023-03-14T14:00:28;12.35;;;4.30;;
52104;SDS011;38103;42.776;23.112;2023-03-14T14:02:55;12.32;;;4.57;;
52104;SDS011;38103;42.776;23.112;2023-03-14T14:05:23;11.05;;;4.32;;
52104;SDS011;38103;42.776;23.112;2023-03-14T14:07:52;12.32;;;4.25;;
52104;SDS011;38103;42.776;23.112;2023-03-14T14:10:17;10.30;;;4.03;;
52104;SDS011;38103;42.776;23.112;2023-03-14T14:12:55;9.85;;;3.60;;
52104;SDS011;38103;42.776;23.112;2023-03-14T14:15:27;12.38;;;4.25;;
52104;SDS011;38103;42.776;23.112;2023-03-14T14:18:00;11.32;;;3.60;;
52104;SDS011;38103;42.776;23.112;2023-03-14T14:20:38;11.20;;;3.75;;
52104;SDS011;38103;42.776;23.112;2023-03-14T14:23:16;13.95;;;3.80;;
52104;SDS011;38103;42.776;23.112;2023-03-14T14:25:49;10.52;;;3.63;;
52104;SDS011;38103;42.776;23.112;2023-03-14T14:33:52;10.70;;;3.50;;
52104;SDS011;38103;42.776;23.112;2023-03-14T14:36:21;9.30;;;3.47;;
52104;SDS011;38103;42.776;23.112;2023-03-14T14:39:20;10.80;;;3.10;;
52104;SDS011;38103;42.776;23.112;2023-03-14T14:41:51;12.60;;;3.30;;
52104;SDS011;38103;42.776;23.112;2023-03-14T14:44:38;8.60;;;2.88;;
52104;SDS011;38103;42.776;23.112;2023-03-14T14:47:03;8.13;;;2.90;;
52104;SDS011;38103;42.776;23.112;2023-03-14T14:49:30;11.10;;;3.40;;
52104;SDS011;38103;42.776;23.112;2023-03-14T14:52:01;11.73;;;3.20;;
52104;SDS011;38103;42.776;23.112;2023-03-14T14:54:33;8.57;;;2.80;;
52104;SDS011;38103;42.776;23.112;2023-03-14T14:57:03;8.55;;;3.05;;
52104;SDS011;38103;42.776;23.112;2023-03-14T14:59:30;10.45;;;3.13;;
52104;SDS011;38103;42.776;23.112;2023-03-14T15:01:57;9.95;;;3.05;;
52104;SDS011;38103;42.776;23.112;2023-03-14T15:04:24;9.73;;;3.15;;
52104;SDS011;38103;42.776;23.112;2023-03-14T15:06:50;9.48;;;3.10;;
52104;SDS011;38103;42.776;23.112;2023-03-14T15:09:17;11.82;;;3.17;;
52104;SDS011;38103;42.776;23.112;2023-03-14T15:11:44;9.15;;;2.88;;
52104;SDS011;38103;42.776;23.112;2023-03-14T15:14:11;9.48;;;3.03;;
52104;SDS011;38103;42.776;23.112;2023-03-14T15:16:36;10.35;;;2.80;;